createdAt,value
2018-07-16T00:03:13.830Z,4.20
2018-07-16T00:07:58.295Z,3.20
2018-07-16T00:12:42.709Z,3.80
2018-07-16T00:17:27.115Z,3.23
2018-07-16T00:22:11.713Z,3.30
2018-07-16T00:26:56.486Z,2.90
2018-07-16T00:31:40.898Z,3.80
2018-07-16T00:36:25.170Z,3.67
2018-07-16T00:41:09.581Z,3.57
2018-07-16T00:45:53.920Z,3.67
2018-07-16T00:50:38.327Z,3.73
2018-07-16T00:55:22.642Z,4.10
2018-07-16T01:00:07.039Z,3.80
2018-07-16T01:04:51.421Z,3.63
2018-07-16T01:09:35.825Z,4.40
2018-07-16T01:14:20.450Z,4.33
2018-07-16T01:19:04.788Z,4.17
2018-07-16T01:23:49.179Z,3.80
2018-07-16T01:28:33.503Z,3.93
2018-07-16T01:33:19.803Z,3.80
2018-07-16T01:38:04.176Z,4.03
2018-07-16T01:42:48.522Z,3.53
2018-07-16T01:47:32.854Z,4.47
2018-07-16T01:52:17.173Z,4.47
2018-07-16T01:57:01.565Z,4.00
2018-07-16T02:01:46.148Z,3.97
2018-07-16T02:06:30.513Z,4.30
2018-07-16T02:11:14.914Z,3.80
2018-07-16T02:15:59.903Z,3.93
2018-07-16T02:20:44.962Z,3.63
2018-07-16T02:25:29.494Z,3.40
2018-07-16T02:30:13.902Z,3.40
2018-07-16T02:34:58.344Z,3.33
2018-07-16T02:39:42.834Z,3.27
2018-07-16T02:44:27.296Z,3.20
2018-07-16T02:49:11.598Z,3.50
2018-07-16T02:53:55.962Z,2.97
2018-07-16T02:58:40.293Z,3.40
2018-07-16T03:03:24.655Z,4.40
2018-07-16T03:08:09.013Z,4.20
2018-07-16T03:12:53.416Z,3.97
2018-07-16T03:17:37.751Z,3.80
2018-07-16T03:22:22.091Z,3.80
2018-07-16T03:27:06.420Z,4.00
2018-07-16T03:31:50.788Z,3.70
2018-07-16T03:36:35.199Z,3.77
2018-07-16T03:41:19.639Z,3.50
2018-07-16T03:46:03.976Z,3.40
2018-07-16T03:50:48.452Z,3.10
2018-07-16T03:55:33.035Z,3.40
2018-07-16T04:00:17.645Z,3.43
2018-07-16T04:05:01.938Z,3.30
2018-07-16T04:09:46.301Z,3.20
2018-07-16T04:14:30.719Z,3.60
2018-07-16T04:19:15.066Z,3.10
2018-07-16T04:23:59.450Z,2.90
2018-07-16T04:28:43.779Z,3.37
2018-07-16T04:33:28.136Z,2.70
2018-07-16T04:38:12.535Z,2.70
2018-07-16T04:42:56.983Z,2.40
2018-07-16T04:47:41.357Z,3.03
2018-07-16T04:52:25.742Z,2.80
2018-07-16T04:57:11.205Z,2.90
2018-07-16T05:01:55.522Z,2.77
2018-07-16T05:06:39.909Z,2.60
2018-07-16T05:11:24.246Z,2.70
2018-07-16T05:16:08.760Z,2.70
2018-07-16T05:20:53.385Z,2.53
2018-07-16T05:25:37.758Z,3.10
2018-07-16T05:30:22.150Z,4.30
2018-07-16T05:35:06.489Z,3.80
2018-07-16T05:39:51.057Z,3.63
2018-07-16T05:44:35.461Z,4.23
2018-07-16T05:49:20.065Z,4.33
2018-07-16T05:54:04.502Z,4.30
2018-07-16T05:58:49.035Z,3.13
2018-07-16T06:03:34.010Z,3.70
2018-07-16T06:08:18.733Z,2.57
2018-07-16T06:13:03.093Z,2.80
2018-07-16T06:17:47.579Z,3.03
2018-07-16T06:22:32.238Z,3.10
2018-07-16T06:27:16.670Z,3.70
2018-07-16T06:32:01.088Z,3.97
2018-07-16T06:36:45.682Z,4.50
2018-07-16T06:41:30.354Z,4.60
2018-07-16T06:46:14.354Z,4.27
2018-07-16T06:50:58.707Z,4.03
2018-07-16T06:55:43.184Z,3.80
2018-07-16T07:00:27.579Z,2.70
2018-07-16T07:05:11.919Z,3.53
2018-07-16T07:09:56.272Z,3.03
2018-07-16T07:14:40.649Z,2.83
2018-07-16T07:19:25.127Z,3.37
2018-07-16T07:24:09.394Z,3.13
2018-07-16T07:28:53.703Z,3.30
2018-07-16T07:33:38.082Z,3.30
2018-07-16T07:38:22.454Z,2.50
2018-07-16T07:43:06.972Z,2.03
2018-07-16T07:47:51.355Z,1.63
2018-07-16T07:52:35.782Z,1.97
2018-07-16T07:57:20.237Z,2.80
2018-07-16T08:02:04.705Z,2.20
2018-07-16T08:06:54.333Z,2.43
2018-07-16T08:11:38.691Z,2.20
2018-07-16T08:16:23.074Z,2.00
2018-07-16T08:21:07.640Z,2.00
2018-07-16T08:25:51.970Z,2.70
2018-07-16T08:30:36.422Z,1.70
2018-07-16T08:35:20.761Z,1.98
2018-07-16T08:40:05.975Z,1.85
2018-07-16T08:44:50.385Z,2.10
2018-07-16T08:49:34.754Z,1.77
2018-07-16T08:54:19.232Z,1.70
2018-07-16T08:59:04.002Z,1.90
2018-07-16T09:03:48.331Z,2.02
2018-07-16T09:08:33.665Z,1.82
2018-07-16T09:13:18.100Z,1.87
2018-07-16T09:18:02.469Z,1.62
2018-07-16T09:22:46.869Z,1.27
2018-07-16T09:27:31.331Z,2.17
2018-07-16T09:32:15.727Z,2.17
2018-07-16T09:37:00.178Z,2.15
2018-07-16T09:41:45.353Z,2.15
2018-07-16T09:46:29.842Z,2.00
2018-07-16T09:51:14.246Z,2.00
2018-07-16T09:55:58.654Z,2.25
2018-07-16T10:00:48.058Z,1.87
2018-07-16T10:05:32.488Z,1.90
2018-07-16T10:10:16.941Z,1.80
2018-07-16T10:15:01.372Z,2.10
2018-07-16T10:19:45.877Z,1.80
2018-07-16T10:24:30.635Z,1.70
2018-07-16T10:29:14.962Z,1.70
2018-07-16T10:33:59.400Z,1.40
2018-07-16T10:38:43.738Z,1.90
2018-07-16T10:43:28.165Z,1.70
2018-07-16T10:48:12.493Z,1.92
2018-07-16T10:52:56.894Z,1.65
2018-07-16T10:57:41.373Z,1.60
2018-07-16T11:02:25.845Z,1.35
2018-07-16T11:07:10.245Z,1.72
2018-07-16T11:11:54.687Z,1.62
2018-07-16T11:16:39.231Z,1.60
2018-07-16T11:21:23.686Z,1.47
2018-07-16T11:26:08.188Z,1.25
2018-07-16T11:30:53.107Z,1.60
2018-07-16T11:35:37.504Z,1.40
2018-07-16T11:40:21.866Z,1.55
2018-07-16T11:45:06.307Z,1.30
2018-07-16T11:49:50.906Z,1.72
2018-07-16T11:54:35.293Z,1.55
2018-07-16T11:59:19.661Z,1.62
2018-07-16T12:04:03.939Z,1.45
2018-07-16T12:08:48.314Z,1.80
2018-07-16T12:13:32.627Z,1.67
2018-07-16T12:18:16.949Z,1.67
2018-07-16T12:23:01.427Z,1.50
2018-07-16T12:27:45.940Z,1.57
2018-07-16T12:32:30.366Z,1.65
2018-07-16T12:37:14.734Z,1.45
2018-07-16T12:41:59.365Z,1.55
2018-07-16T12:46:43.764Z,1.50
2018-07-16T12:51:28.172Z,1.42
2018-07-16T12:56:12.614Z,1.45
2018-07-16T13:00:57.021Z,1.60
2018-07-16T13:05:41.454Z,1.62
2018-07-16T13:10:25.835Z,1.60
2018-07-16T13:15:10.285Z,1.80
2018-07-16T13:19:54.654Z,1.85
2018-07-16T13:24:38.964Z,1.90
2018-07-16T13:29:23.354Z,1.70
2018-07-16T13:34:07.757Z,1.80
2018-07-16T13:38:52.215Z,1.75
2018-07-16T13:43:36.526Z,1.87
2018-07-16T13:48:21.129Z,1.62
2018-07-16T13:53:05.854Z,1.72
2018-07-16T13:57:50.211Z,1.90
2018-07-16T14:02:34.582Z,2.00
2018-07-16T14:07:18.890Z,1.80
2018-07-16T14:12:03.394Z,2.10
2018-07-16T14:16:47.787Z,1.92
2018-07-16T14:21:32.201Z,1.85
2018-07-16T14:26:16.572Z,1.77
2018-07-16T14:31:00.968Z,1.72
2018-07-16T14:35:45.282Z,1.72
2018-07-16T14:40:29.648Z,1.60
2018-07-16T14:45:13.934Z,1.85
2018-07-16T14:49:58.326Z,1.70
2018-07-16T14:54:42.640Z,1.65
2018-07-16T14:59:27.059Z,1.70
2018-07-16T15:04:11.511Z,1.80
2018-07-16T15:08:56.017Z,1.77
2018-07-16T15:13:40.370Z,1.70
2018-07-16T15:18:24.997Z,1.92
2018-07-16T15:23:09.337Z,1.95
2018-07-16T15:27:53.858Z,1.70
2018-07-16T15:32:38.297Z,1.70
2018-07-16T15:37:22.656Z,1.80
2018-07-16T15:42:07.031Z,1.90
2018-07-16T15:46:51.586Z,1.90
2018-07-16T15:51:36.008Z,1.70
2018-07-16T15:56:20.591Z,1.85
2018-07-16T16:01:04.923Z,1.70
2018-07-16T16:05:49.428Z,1.80
2018-07-16T16:10:33.971Z,1.77
2018-07-16T16:15:18.711Z,1.90
2018-07-16T16:20:03.060Z,2.10
2018-07-16T16:24:47.449Z,1.70
2018-07-16T16:29:31.810Z,1.67
2018-07-16T16:34:16.282Z,1.77
2018-07-16T16:39:00.706Z,1.87
2018-07-16T16:43:45.402Z,1.72
2018-07-16T16:48:29.777Z,1.90
2018-07-16T16:53:14.174Z,1.90
2018-07-16T16:57:58.562Z,1.80
2018-07-16T17:02:42.964Z,1.90
2018-07-16T17:07:27.445Z,1.92
2018-07-16T17:12:11.839Z,2.00
2018-07-16T17:16:56.312Z,2.17
2018-07-16T17:21:41.549Z,1.80
2018-07-16T17:26:25.900Z,2.02
2018-07-16T17:31:10.283Z,1.80
2018-07-16T17:35:55.060Z,1.80
2018-07-16T17:40:39.403Z,1.90
2018-07-16T17:45:23.953Z,1.98
2018-07-16T17:50:08.393Z,2.70
2018-07-16T17:54:52.938Z,1.77
2018-07-16T17:59:37.325Z,2.43
2018-07-16T18:04:21.838Z,2.00
2018-07-16T18:09:07.581Z,2.57
2018-07-16T18:13:52.029Z,2.00
2018-07-16T18:18:36.595Z,1.90
2018-07-16T18:23:21.025Z,1.70
2018-07-16T18:28:05.414Z,1.80
2018-07-16T18:32:49.816Z,1.60
2018-07-16T18:37:34.267Z,1.70
2018-07-16T18:42:18.658Z,3.23
2018-07-16T18:47:02.992Z,2.10
2018-07-16T18:51:47.506Z,1.93
2018-07-16T18:56:31.903Z,2.13
2018-07-16T19:01:16.320Z,2.00
2018-07-16T19:06:00.692Z,2.10
2018-07-16T19:10:45.079Z,2.43
2018-07-16T19:15:29.699Z,2.50
2018-07-16T19:20:14.109Z,2.43
2018-07-16T19:24:58.590Z,2.50
2018-07-16T19:29:43.247Z,2.33
2018-07-16T19:34:27.664Z,2.07
2018-07-16T19:39:12.563Z,2.20
2018-07-16T19:43:56.976Z,2.50
2018-07-16T19:48:41.548Z,2.00
2018-07-16T19:53:26.043Z,2.20
2018-07-16T19:58:10.471Z,2.13
2018-07-16T20:02:54.895Z,2.17
2018-07-16T20:07:39.581Z,1.93
2018-07-16T20:12:30.997Z,2.43
2018-07-16T20:17:15.536Z,2.13
2018-07-16T20:21:59.950Z,2.50
2018-07-16T20:26:44.578Z,2.07
2018-07-16T20:31:29.006Z,1.90
2018-07-16T20:36:13.583Z,2.07
2018-07-16T20:40:58.106Z,2.20
2018-07-16T20:45:43.025Z,2.23
2018-07-16T20:50:28.103Z,2.37
2018-07-16T20:55:12.748Z,2.17
2018-07-16T20:59:57.451Z,2.17
2018-07-16T21:04:42.098Z,2.33
2018-07-16T21:09:26.747Z,2.40
2018-07-16T21:14:11.165Z,3.80
2018-07-16T21:18:55.554Z,2.17
2018-07-16T21:23:39.915Z,2.53
2018-07-16T21:28:24.302Z,2.40
2018-07-16T21:33:08.789Z,2.60
2018-07-16T21:37:53.191Z,2.20
2018-07-16T21:42:37.676Z,2.60
2018-07-16T21:47:22.128Z,2.67
2018-07-16T21:52:06.757Z,2.83
2018-07-16T21:56:51.382Z,2.70
2018-07-16T22:01:35.758Z,2.80
2018-07-16T22:06:20.195Z,3.27
2018-07-16T22:11:04.697Z,2.90
2018-07-16T22:15:49.052Z,3.60
2018-07-16T22:20:33.399Z,3.43
2018-07-16T22:25:17.914Z,3.80
2018-07-16T22:30:02.264Z,3.60
2018-07-16T22:34:46.639Z,3.17
2018-07-16T22:39:31.151Z,2.50
2018-07-16T22:44:15.530Z,2.97
2018-07-16T22:48:59.882Z,3.27
2018-07-16T22:53:44.253Z,3.00
2018-07-16T22:58:28.578Z,2.43
2018-07-16T23:03:12.913Z,3.03
2018-07-16T23:07:57.317Z,2.77
2018-07-16T23:12:41.566Z,2.77
2018-07-16T23:17:26.065Z,3.57
2018-07-16T23:22:10.449Z,2.90
2018-07-16T23:26:54.748Z,3.20
2018-07-16T23:31:39.171Z,3.13
2018-07-16T23:36:23.560Z,3.03
2018-07-16T23:41:08.129Z,2.80
2018-07-16T23:45:52.486Z,3.40
2018-07-16T23:50:36.769Z,3.03
2018-07-16T23:55:21.077Z,2.90
